Glendale, RI (02826)

6:09 PM EDT on September 29, 2016 (GMT -0400)
Spring Lake | | Change Station

Elev 400 ft 41.98 °N, 71.66 °W | Updated 15 seconds ago

Overcast
Overcast
55.7 °F
Feels Like 55.7 °F
N
0.0
Wind Variable Wind from NNE
Gusts 4.0 mph

Today
High -- | Low -- °F
--% Chance of Precip.
Yesterday
High -- | Low -- °F
Precip. -- in
Pressure 30.53 in
Visibility 10.0 miles
Clouds Overcast 2000 ft
Dew Point 51 °F
Humidity 83%
Rainfall 0.00 in
Snow Depth Not available.
6:41 AM 6:30 PM
Waning Crescent, 1% visible
METAR KSFZ 292156Z AUTO 06010G15KT 10SM OVC020 13/08 A3046 RMK AO2 SLP338 T01280083
Pressure 30.53 in
Visibility 10.0 miles
Clouds Overcast 2000 ft
Dew Point 51 °F
Humidity 83%
Rainfall 0.00 in
Snow Depth Not available.
6:41 AM 6:30 PM
Waning Crescent, 1% visible
METAR KSFZ 292156Z AUTO 06010G15KT 10SM OVC020 13/08 A3046 RMK AO2 SLP338 T01280083

10-Day Weather Forecast

Almanac

Astronomy

Sep. 29, 2016 Rise Set
Actual Time
Civil Twilight
Nautical Twilight
Astronomical Twilight
Moon
Length of Visible Light
Length of Day
Tomorrow will be .
, % of the Moon is Illuminated

Today's Extremes

State Highs State Lows

Community

WunderPhotos

Upload Photos

1,942,584 photos uploaded!

WunderBlog® & News

Nearby

Air Quality

  Air Quality AQ Index Pollutant
Not available.

Snow Depth

Station Depth Elevation

Earthquake Activity

City Distance Mag. Time & Date
Minimum magnitude displayed is 2.5.

Coastal Water Temperatures

Place Temperature

Stations

Nearby Weather Stations

Station Location Temp. Windchill Dew Point Humidity Wind Precip. Elev Updated Type
                   

Watches & Warnings

There are currently no watches in effect.